Time;durP1;ratioP1;P1;durP2;ratioP2;P2;SDS_P1;SDS_P2;PMS_P1;PMS_P2;Temp;Humidity;BMP_temperature;BMP_pressure;BME280_temperature;BME280_humidity;BME280_pressure;Samples;Min_cycle;Max_cycle;Signal;HPM_P1;HPM_P2
2024/01/11 00:02:23;;;;;;;13.93;11.73;;;;;;;;;;5038568;28;20248;-86
2024/01/11 00:04:48;;;;;;;16.33;12.97;;;;;;;;;;5036767;28;20639;-87
2024/01/11 00:07:14;;;;;;;17.07;11.90;;;;;;;;;;5048174;28;20229;-88
2024/01/11 00:09:41;;;;;;;19.53;12.63;;;;;;;;;;5040604;28;20274;-87
2024/01/11 00:12:07;;;;;;;17.77;12.87;;;;;;;;;;5042453;28;20317;-87
2024/01/11 00:14:35;;;;;;;17.30;12.80;;;;;;;;;;5076228;28;20229;-87
2024/01/11 00:17:00;;;;;;;15.33;12.73;;;;;;;;;;5034968;28;20258;-87
2024/01/11 00:19:31;;;;;;;16.77;11.70;;;;;;;;;;5040396;28;20218;-87
2024/01/11 00:21:59;;;;;;;15.07;12.10;;;;;;;;;;5042707;28;20259;-87
2024/01/11 00:24:25;;;;;;;14.47;12.77;;;;;;;;;;5039716;28;20819;-87
2024/01/11 00:26:55;;;;;;;18.73;12.73;;;;;;;;;;5037100;28;20263;-87
2024/01/11 00:29:22;;;;;;;17.67;12.50;;;;;;;;;;5056058;28;20298;-87
2024/01/11 00:31:48;;;;;;;13.90;11.97;;;;;;;;;;5034871;28;20233;-87
2024/01/11 00:34:13;;;;;;;18.20;13.10;;;;;;;;;;5045050;28;20219;-87
2024/01/11 00:36:39;;;;;;;16.80;12.37;;;;;;;;;;5065579;28;20244;-87
2024/01/11 00:39:05;;;;;;;15.07;11.93;;;;;;;;;;5028185;28;20229;-87
2024/01/11 00:41:30;;;;;;;14.20;12.30;;;;;;;;;;5050284;28;20221;-87
2024/01/11 00:43:58;;;;;;;14.50;12.40;;;;;;;;;;5023417;28;20217;-87
2024/01/11 00:46:24;;;;;;;14.97;11.60;;;;;;;;;;5024010;28;20234;-87
2024/01/11 00:48:49;;;;;;;17.67;12.43;;;;;;;;;;5040973;28;20215;-87
2024/01/11 00:51:15;;;;;;;15.40;11.97;;;;;;;;;;5039112;28;20225;-86
2024/01/11 00:53:45;;;;;;;15.03;12.93;;;;;;;;;;5048934;28;20223;-88
2024/01/11 00:56:17;;;;;;;15.83;12.33;;;;;;;;;;5070071;28;20233;-87
2024/01/11 00:58:45;;;;;;;15.60;12.00;;;;;;;;;;5036034;28;20248;-87
2024/01/11 01:01:16;;;;;;;18.50;12.83;;;;;;;;;;5042722;28;20348;-87
2024/01/11 01:03:42;;;;;;;17.13;12.80;;;;;;;;;;5035372;28;20239;-87
2024/01/11 01:06:07;;;;;;;18.37;12.57;;;;;;;;;;5029142;28;20691;-87
2024/01/11 01:08:33;;;;;;;15.87;12.53;;;;;;;;;;5044592;28;20210;-87
2024/01/11 01:11:03;;;;;;;14.73;12.67;;;;;;;;;;5037671;28;20217;-88
2024/01/11 01:13:31;;;;;;;18.57;12.73;;;;;;;;;;5033119;28;20234;-87
2024/01/11 01:15:58;;;;;;;15.90;12.93;;;;;;;;;;5023627;28;20243;-87
2024/01/11 01:18:24;;;;;;;16.17;12.67;;;;;;;;;;5043980;28;20709;-88
2024/01/11 01:20:50;;;;;;;16.07;12.97;;;;;;;;;;5043540;28;20214;-88
2024/01/11 01:23:16;;;;;;;13.50;11.60;;;;;;;;;;5026921;28;20249;-87
2024/01/11 01:25:41;;;;;;;17.10;12.50;;;;;;;;;;5044017;28;20714;-88
2024/01/11 01:28:07;;;;;;;15.07;12.83;;;;;;;;;;5063453;28;20225;-88
2024/01/11 01:30:33;;;;;;;17.50;13.00;;;;;;;;;;5046967;28;20290;-88
2024/01/11 01:32:58;;;;;;;14.13;11.97;;;;;;;;;;5064590;28;20243;-88
2024/01/11 01:35:24;;;;;;;15.77;12.17;;;;;;;;;;5078262;28;20277;-88
2024/01/11 01:37:49;;;;;;;16.57;12.03;;;;;;;;;;5079712;28;20336;-88
2024/01/11 01:40:15;;;;;;;15.30;11.93;;;;;;;;;;5032705;28;20218;-88
2024/01/11 01:42:44;;;;;;;16.13;12.93;;;;;;;;;;5060759;28;20234;-88
2024/01/11 01:45:10;;;;;;;13.80;10.90;;;;;;;;;;5028154;28;20219;-88
2024/01/11 01:47:36;;;;;;;15.93;12.57;;;;;;;;;;5029450;28;20594;-88
2024/01/11 01:50:05;;;;;;;14.50;12.97;;;;;;;;;;5052963;28;20252;-86
2024/01/11 01:52:33;;;;;;;16.30;14.37;;;;;;;;;;5027711;28;20234;-85
2024/01/11 01:54:58;;;;;;;15.43;12.27;;;;;;;;;;5046589;28;20249;-85
2024/01/11 01:57:24;;;;;;;20.23;15.00;;;;;;;;;;5043201;28;20218;-85
2024/01/11 01:59:54;;;;;;;18.10;13.77;;;;;;;;;;5057323;28;20210;-84
2024/01/11 02:02:25;;;;;;;17.40;13.70;;;;;;;;;;5057037;28;20214;-85
2024/01/11 02:04:55;;;;;;;17.63;13.80;;;;;;;;;;5056008;28;20330;-84
2024/01/11 02:07:24;;;;;;;15.67;12.77;;;;;;;;;;5055213;28;20222;-85
2024/01/11 02:09:50;;;;;;;15.90;13.03;;;;;;;;;;5042599;28;20282;-85
2024/01/11 02:12:17;;;;;;;17.37;13.93;;;;;;;;;;5059115;28;20329;-85
2024/01/11 02:14:45;;;;;;;18.33;14.07;;;;;;;;;;5059956;28;20762;-85
2024/01/11 02:17:13;;;;;;;15.07;13.07;;;;;;;;;;5024242;28;20651;-85
2024/01/11 02:19:38;;;;;;;14.13;11.77;;;;;;;;;;5042189;28;20214;-86
2024/01/11 02:22:08;;;;;;;19.47;13.30;;;;;;;;;;5038839;28;20218;-84
2024/01/11 02:24:33;;;;;;;19.40;12.90;;;;;;;;;;5038612;28;20230;-84
2024/01/11 02:27:04;;;;;;;15.53;12.47;;;;;;;;;;5055301;28;20226;-85
2024/01/11 02:29:30;;;;;;;14.10;11.70;;;;;;;;;;5043796;28;20330;-85
2024/01/11 02:31:58;;;;;;;15.97;13.33;;;;;;;;;;5061197;28;20286;-85
2024/01/11 02:34:24;;;;;;;18.63;14.00;;;;;;;;;;5056688;28;20275;-84
2024/01/11 02:36:49;;;;;;;19.43;14.23;;;;;;;;;;5037945;28;20274;-85
2024/01/11 02:39:18;;;;;;;16.47;13.23;;;;;;;;;;5058931;28;20218;-87
2024/01/11 02:41:47;;;;;;;14.93;12.47;;;;;;;;;;5022090;28;20215;-87
2024/01/11 02:44:16;;;;;;;19.93;12.17;;;;;;;;;;5038405;28;20733;-88
2024/01/11 02:46:44;;;;;;;17.50;13.93;;;;;;;;;;5030649;28;20293;-87
2024/01/11 02:49:10;;;;;;;16.87;13.87;;;;;;;;;;5041095;28;20269;-87
2024/01/11 02:51:40;;;;;;;17.23;13.57;;;;;;;;;;5074164;28;20373;-87
2024/01/11 02:54:08;;;;;;;17.17;14.53;;;;;;;;;;5081659;28;20904;-87
2024/01/11 02:56:34;;;;;;;19.00;14.90;;;;;;;;;;5065162;28;20242;-87
2024/01/11 02:59:02;;;;;;;19.10;14.80;;;;;;;;;;5046700;28;20222;-87
2024/01/11 03:01:27;;;;;;;19.57;14.93;;;;;;;;;;5035538;28;20954;-88
2024/01/11 03:03:53;;;;;;;18.77;14.23;;;;;;;;;;5025795;28;20218;-87
2024/01/11 03:06:22;;;;;;;18.77;14.40;;;;;;;;;;5032268;28;20230;-87
2024/01/11 03:08:48;;;;;;;19.57;14.47;;;;;;;;;;5052790;28;20210;-87
2024/01/11 03:11:16;;;;;;;15.63;13.73;;;;;;;;;;5047449;28;20222;-86
2024/01/11 03:13:44;;;;;;;17.13;14.03;;;;;;;;;;5022389;28;20302;-88
2024/01/11 03:16:12;;;;;;;21.60;13.83;;;;;;;;;;5040331;28;20214;-87
2024/01/11 03:18:40;;;;;;;18.30;14.37;;;;;;;;;;5065248;28;20615;-87
2024/01/11 03:21:05;;;;;;;19.33;15.10;;;;;;;;;;5064358;28;20276;-87
2024/01/11 03:23:33;;;;;;;15.50;12.80;;;;;;;;;;5059755;28;20233;-88
2024/01/11 03:25:59;;;;;;;18.13;13.83;;;;;;;;;;5058101;28;20652;-88
2024/01/11 03:28:24;;;;;;;16.67;13.47;;;;;;;;;;5059190;28;20222;-88
2024/01/11 03:30:52;;;;;;;16.40;13.43;;;;;;;;;;5056430;28;20647;-88
2024/01/11 03:33:17;;;;;;;17.73;14.63;;;;;;;;;;5046165;28;20313;-88
2024/01/11 03:35:44;;;;;;;16.80;14.53;;;;;;;;;;5057866;28;20203;-88
2024/01/11 03:38:09;;;;;;;19.87;15.33;;;;;;;;;;5043680;28;20261;-88
2024/01/11 03:40:38;;;;;;;20.70;15.43;;;;;;;;;;5031701;28;20266;-88
2024/01/11 03:43:03;;;;;;;16.80;13.57;;;;;;;;;;5044158;28;20228;-87
2024/01/11 03:45:29;;;;;;;17.90;14.87;;;;;;;;;;5050829;28;20214;-87
2024/01/11 03:47:54;;;;;;;18.73;15.10;;;;;;;;;;5078665;28;20221;-88
2024/01/11 03:50:20;;;;;;;18.63;15.10;;;;;;;;;;5028917;28;20255;-88
2024/01/11 03:52:48;;;;;;;21.00;14.90;;;;;;;;;;5032300;28;20217;-88
2024/01/11 03:55:16;;;;;;;18.73;14.43;;;;;;;;;;5022759;28;20679;-88
2024/01/11 03:57:44;;;;;;;17.67;14.53;;;;;;;;;;5027671;28;20337;-88
2024/01/11 04:03:56;;;;;;;23.70;15.60;;;;;;;;;;5088711;28;20221;-88
2024/01/11 04:06:24;;;;;;;20.63;16.00;;;;;;;;;;5050477;28;20221;-88
2024/01/11 04:08:52;;;;;;;19.77;16.50;;;;;;;;;;5045228;28;20206;-88
2024/01/11 04:11:23;;;;;;;21.80;15.77;;;;;;;;;;5054612;28;20306;-88
2024/01/11 04:13:49;;;;;;;22.87;16.63;;;;;;;;;;5039737;28;20305;-88
2024/01/11 04:16:14;;;;;;;22.00;17.63;;;;;;;;;;5049833;28;20217;-87
2024/01/11 04:18:40;;;;;;;20.63;16.37;;;;;;;;;;5043253;28;20755;-88
2024/01/11 04:21:05;;;;;;;23.00;18.27;;;;;;;;;;5058296;28;20210;-86
2024/01/11 04:23:31;;;;;;;25.93;18.43;;;;;;;;;;5028637;28;20242;-87
2024/01/11 04:25:56;;;;;;;28.17;19.53;;;;;;;;;;5042342;28;20207;-88
2024/01/11 04:28:22;;;;;;;24.10;18.77;;;;;;;;;;5018206;28;20222;-86
2024/01/11 04:30:50;;;;;;;22.03;18.63;;;;;;;;;;5035949;28;20218;-89
2024/01/11 04:33:15;;;;;;;24.97;19.10;;;;;;;;;;5061718;28;20572;-87
2024/01/11 04:35:41;;;;;;;26.00;19.77;;;;;;;;;;5042441;28;20206;-86
2024/01/11 04:38:06;;;;;;;28.93;21.17;;;;;;;;;;5027269;28;20246;-87
2024/01/11 04:40:32;;;;;;;26.17;19.33;;;;;;;;;;5036600;28;20217;-86
2024/01/11 04:42:57;;;;;;;24.57;19.33;;;;;;;;;;5029586;28;20274;-87
2024/01/11 04:45:23;;;;;;;26.90;20.90;;;;;;;;;;5029192;28;20678;-86
2024/01/11 04:47:50;;;;;;;25.17;20.30;;;;;;;;;;5044114;28;20759;-86
2024/01/11 04:50:18;;;;;;;28.57;20.23;;;;;;;;;;5013982;28;20222;-77
2024/01/11 04:52:46;;;;;;;28.57;22.00;;;;;;;;;;5075238;28;20221;-77
2024/01/11 04:55:14;;;;;;;29.27;23.23;;;;;;;;;;5042865;28;20746;-78
2024/01/11 04:57:42;;;;;;;26.30;21.33;;;;;;;;;;5047608;28;20261;-77
2024/01/11 05:00:10;;;;;;;29.43;21.73;;;;;;;;;;5075956;28;20263;-78
2024/01/11 05:02:36;;;;;;;29.17;22.60;;;;;;;;;;5025997;28;20229;-77
2024/01/11 05:05:04;;;;;;;32.20;23.70;;;;;;;;;;5040182;28;20312;-77
2024/01/11 05:07:30;;;;;;;30.67;24.07;;;;;;;;;;5064248;28;20218;-78
2024/01/11 05:09:55;;;;;;;31.67;24.60;;;;;;;;;;5016759;28;20214;-77
2024/01/11 05:12:21;;;;;;;35.33;25.53;;;;;;;;;;5080802;28;20224;-77
2024/01/11 05:14:46;;;;;;;36.73;25.83;;;;;;;;;;5031864;28;20221;-77
2024/01/11 05:17:16;;;;;;;35.20;24.97;;;;;;;;;;5062674;28;20229;-77
2024/01/11 05:19:44;;;;;;;32.20;24.77;;;;;;;;;;5061421;28;20231;-77
2024/01/11 05:22:09;;;;;;;41.87;28.80;;;;;;;;;;5078708;28;20229;-77
2024/01/11 05:24:37;;;;;;;33.00;27.10;;;;;;;;;;5060132;28;20218;-77
2024/01/11 05:27:03;;;;;;;36.93;27.60;;;;;;;;;;5036040;28;20221;-77
2024/01/11 05:29:31;;;;;;;35.83;26.80;;;;;;;;;;5045294;28;20575;-77
2024/01/11 05:31:57;;;;;;;39.33;29.80;;;;;;;;;;5051336;28;20649;-77
2024/01/11 05:34:23;;;;;;;38.90;28.53;;;;;;;;;;5033996;28;20214;-77
2024/01/11 05:36:48;;;;;;;39.23;29.03;;;;;;;;;;5082430;28;20218;-77
2024/01/11 05:39:13;;;;;;;36.83;28.43;;;;;;;;;;5045889;28;20248;-77
2024/01/11 05:41:47;;;;;;;48.43;30.43;;;;;;;;;;5063269;28;20264;-77
2024/01/11 05:44:13;;;;;;;36.33;27.33;;;;;;;;;;5037352;28;20269;-77
2024/01/11 05:46:38;;;;;;;38.63;28.27;;;;;;;;;;5045411;28;20739;-77
2024/01/11 05:49:04;;;;;;;39.37;28.13;;;;;;;;;;5077040;28;20219;-77
2024/01/11 05:51:29;;;;;;;38.10;28.93;;;;;;;;;;5044824;28;20235;-77
2024/01/11 05:53:55;;;;;;;39.43;28.77;;;;;;;;;;5031850;28;20218;-77
2024/01/11 05:56:20;;;;;;;39.93;27.53;;;;;;;;;;5045755;28;20226;-77
2024/01/11 05:58:46;;;;;;;40.47;30.23;;;;;;;;;;5067692;28;20218;-77
2024/01/11 06:01:11;;;;;;;36.80;27.77;;;;;;;;;;5036743;28;20218;-77
2024/01/11 06:03:38;;;;;;;41.23;29.53;;;;;;;;;;5037922;28;20217;-77
2024/01/11 06:06:04;;;;;;;40.63;31.07;;;;;;;;;;5063976;28;20222;-78
2024/01/11 06:08:32;;;;;;;37.70;30.60;;;;;;;;;;5030839;28;20222;-77
2024/01/11 06:11:00;;;;;;;41.63;32.13;;;;;;;;;;5079569;28;20316;-77
2024/01/11 06:13:26;;;;;;;41.30;31.37;;;;;;;;;;5036801;28;20214;-78
2024/01/11 06:15:51;;;;;;;48.63;30.93;;;;;;;;;;5060621;28;20652;-78
2024/01/11 06:18:17;;;;;;;37.30;29.93;;;;;;;;;;5043607;28;20230;-77
2024/01/11 06:20:42;;;;;;;41.60;30.00;;;;;;;;;;5059526;28;20222;-77
2024/01/11 06:23:08;;;;;;;40.03;31.53;;;;;;;;;;5077930;28;20213;-77
2024/01/11 06:25:33;;;;;;;40.00;30.53;;;;;;;;;;5043720;28;20237;-77
2024/01/11 06:27:59;;;;;;;42.47;32.27;;;;;;;;;;5051155;28;20226;-77
2024/01/11 06:30:25;;;;;;;44.13;32.53;;;;;;;;;;5074885;28;20226;-77
2024/01/11 06:32:50;;;;;;;38.63;29.17;;;;;;;;;;5047075;28;20215;-77
2024/01/11 06:35:16;;;;;;;43.90;31.97;;;;;;;;;;5025886;28;20214;-77
2024/01/11 06:37:41;;;;;;;39.07;32.07;;;;;;;;;;5044197;28;20227;-77
2024/01/11 06:40:08;;;;;;;44.33;33.50;;;;;;;;;;5030628;28;20222;-78
2024/01/11 06:42:36;;;;;;;45.20;32.50;;;;;;;;;;5046236;28;20271;-77
2024/01/11 06:45:03;;;;;;;49.80;33.93;;;;;;;;;;5081164;28;20646;-78
2024/01/11 06:47:28;;;;;;;42.90;33.33;;;;;;;;;;5030347;28;20261;-77
2024/01/11 06:49:54;;;;;;;47.80;35.43;;;;;;;;;;5067038;28;20217;-78
2024/01/11 06:52:19;;;;;;;48.30;36.30;;;;;;;;;;5046868;28;20732;-77
2024/01/11 06:54:50;;;;;;;47.37;34.30;;;;;;;;;;5041567;28;20595;-76
2024/01/11 06:57:17;;;;;;;46.17;35.80;;;;;;;;;;5065899;28;20294;-77
2024/01/11 06:59:46;;;;;;;47.27;33.10;;;;;;;;;;5050187;28;20218;-77
2024/01/11 07:02:12;;;;;;;51.93;35.90;;;;;;;;;;5026879;28;20225;-77
2024/01/11 07:04:38;;;;;;;49.53;34.57;;;;;;;;;;5063577;28;20211;-77
2024/01/11 07:07:04;;;;;;;50.10;35.33;;;;;;;;;;5043045;28;20283;-78
2024/01/11 07:09:32;;;;;;;48.00;34.17;;;;;;;;;;5042195;28;20304;-77
2024/01/11 07:12:00;;;;;;;60.97;36.33;;;;;;;;;;5047263;28;20918;-77
2024/01/11 07:14:29;;;;;;;51.53;34.47;;;;;;;;;;5026507;28;20232;-78
2024/01/11 07:16:57;;;;;;;44.87;31.47;;;;;;;;;;5063959;28;20741;-78
2024/01/11 07:19:23;;;;;;;48.80;35.63;;;;;;;;;;5033647;28;20233;-77
2024/01/11 07:21:48;;;;;;;49.67;36.50;;;;;;;;;;5062770;28;20234;-77
2024/01/11 07:24:14;;;;;;;46.53;34.67;;;;;;;;;;5058801;28;20227;-77
2024/01/11 07:26:40;;;;;;;52.57;35.33;;;;;;;;;;5046656;28;20293;-77
2024/01/11 07:29:07;;;;;;;59.53;36.90;;;;;;;;;;5063621;28;20598;-77
2024/01/11 07:31:33;;;;;;;52.53;36.53;;;;;;;;;;5061164;28;20231;-77
2024/01/11 07:33:59;;;;;;;58.37;36.73;;;;;;;;;;5027682;28;20226;-78
2024/01/11 07:36:24;;;;;;;55.73;36.53;;;;;;;;;;5039059;28;20223;-77
2024/01/11 07:38:50;;;;;;;55.17;37.07;;;;;;;;;;5049643;28;20272;-78
2024/01/11 07:41:16;;;;;;;54.97;38.20;;;;;;;;;;5059695;28;20210;-77
2024/01/11 07:43:41;;;;;;;57.53;39.80;;;;;;;;;;5028485;28;20279;-78
2024/01/11 07:46:09;;;;;;;63.17;40.50;;;;;;;;;;5041989;28;20218;-77
2024/01/11 07:48:34;;;;;;;60.23;38.93;;;;;;;;;;5046005;28;20214;-78
2024/01/11 07:51:00;;;;;;;63.57;43.33;;;;;;;;;;5062631;28;20295;-77
2024/01/11 07:53:28;;;;;;;67.00;39.37;;;;;;;;;;5026130;28;20223;-77
2024/01/11 07:55:57;;;;;;;58.50;39.47;;;;;;;;;;5042604;28;20215;-78
2024/01/11 07:58:23;;;;;;;62.13;38.87;;;;;;;;;;5043314;28;20230;-77
2024/01/11 08:00:48;;;;;;;56.43;40.00;;;;;;;;;;5044452;28;20229;-78
2024/01/11 08:03:14;;;;;;;67.10;43.00;;;;;;;;;;5060663;28;20250;-78
2024/01/11 08:05:40;;;;;;;68.03;41.87;;;;;;;;;;5025309;28;20214;-78
2024/01/11 08:08:08;;;;;;;67.30;40.93;;;;;;;;;;5047478;28;20261;-77
2024/01/11 08:10:33;;;;;;;61.20;44.53;;;;;;;;;;5041410;28;20307;-77
2024/01/11 08:13:02;;;;;;;64.07;43.13;;;;;;;;;;5008194;28;20695;-78
2024/01/11 08:15:32;;;;;;;54.03;38.73;;;;;;;;;;5076999;28;20288;-77
2024/01/11 08:18:00;;;;;;;58.43;38.33;;;;;;;;;;5048995;28;20222;-78
2024/01/11 08:20:25;;;;;;;56.40;39.47;;;;;;;;;;5064079;28;20307;-78
2024/01/11 08:22:51;;;;;;;55.33;37.90;;;;;;;;;;5033413;28;20283;-78
2024/01/11 08:25:17;;;;;;;55.87;37.07;;;;;;;;;;5008428;28;20254;-78
2024/01/11 08:27:43;;;;;;;53.33;38.70;;;;;;;;;;5043022;28;20223;-77
2024/01/11 08:30:12;;;;;;;51.37;36.83;;;;;;;;;;5015935;28;20248;-77
2024/01/11 08:32:41;;;;;;;51.00;37.13;;;;;;;;;;5061743;28;20235;-78
2024/01/11 08:35:11;;;;;;;56.93;35.77;;;;;;;;;;5047556;28;20214;-77
2024/01/11 08:37:38;;;;;;;70.93;40.07;;;;;;;;;;5060296;28;20226;-78
2024/01/11 08:40:04;;;;;;;66.27;39.67;;;;;;;;;;5076907;28;20234;-78
2024/01/11 08:42:32;;;;;;;54.30;38.07;;;;;;;;;;5047693;28;20712;-77
2024/01/11 08:45:06;;;;;;;59.83;37.83;;;;;;;;;;5057360;28;20222;-77
2024/01/11 08:47:32;;;;;;;57.00;37.13;;;;;;;;;;5064257;28;20236;-77
2024/01/11 08:50:00;;;;;;;54.47;39.63;;;;;;;;;;5042239;28;20222;-78
2024/01/11 08:52:28;;;;;;;59.30;38.83;;;;;;;;;;5032680;28;20234;-77
2024/01/11 08:54:56;;;;;;;61.60;36.30;;;;;;;;;;5047636;28;20284;-77
2024/01/11 08:57:27;;;;;;;54.83;36.20;;;;;;;;;;5060689;28;20230;-78
2024/01/11 08:59:53;;;;;;;50.17;35.37;;;;;;;;;;5048555;28;20218;-77
2024/01/11 09:02:20;;;;;;;56.83;37.67;;;;;;;;;;5056846;28;20271;-78
2024/01/11 09:04:48;;;;;;;59.53;34.17;;;;;;;;;;5062174;28;20242;-78
2024/01/11 09:07:16;;;;;;;52.53;35.00;;;;;;;;;;5044765;28;20214;-77
2024/01/11 09:09:44;;;;;;;54.20;36.30;;;;;;;;;;5060850;28;20271;-77
2024/01/11 09:12:10;;;;;;;55.27;33.87;;;;;;;;;;5031826;28;20229;-77
2024/01/11 09:14:35;;;;;;;49.50;35.57;;;;;;;;;;5045701;28;20687;-76
2024/01/11 09:17:06;;;;;;;51.57;37.43;;;;;;;;;;5045075;28;20615;-77
2024/01/11 09:19:33;;;;;;;54.00;36.83;;;;;;;;;;5056522;28;20666;-77
2024/01/11 09:21:59;;;;;;;64.10;39.03;;;;;;;;;;5029990;28;20234;-77
2024/01/11 09:24:25;;;;;;;51.10;37.00;;;;;;;;;;5065897;28;20560;-76
2024/01/11 09:26:53;;;;;;;55.27;37.77;;;;;;;;;;5048240;28;20252;-77
2024/01/11 09:29:18;;;;;;;60.37;37.37;;;;;;;;;;5027403;28;20562;-77
2024/01/11 09:31:44;;;;;;;63.93;37.97;;;;;;;;;;5065864;28;20233;-77
2024/01/11 09:34:10;;;;;;;51.20;36.40;;;;;;;;;;5035694;28;20214;-77
2024/01/11 09:36:39;;;;;;;57.03;37.80;;;;;;;;;;5031522;28;20744;-76
2024/01/11 09:39:05;;;;;;;54.83;36.00;;;;;;;;;;5057665;28;20210;-76
2024/01/11 09:41:31;;;;;;;62.03;38.40;;;;;;;;;;5032745;28;20278;-76
2024/01/11 09:44:00;;;;;;;52.37;37.40;;;;;;;;;;5046337;28;20226;-76
2024/01/11 09:46:28;;;;;;;54.60;37.53;;;;;;;;;;5050656;28;20222;-76
2024/01/11 09:48:56;;;;;;;61.77;39.83;;;;;;;;;;5028464;28;20225;-76
2024/01/11 09:51:22;;;;;;;63.13;41.10;;;;;;;;;;5029089;28;20218;-76
2024/01/11 09:53:50;;;;;;;54.03;37.83;;;;;;;;;;5048916;28;20219;-77
2024/01/11 09:56:16;;;;;;;52.60;33.87;;;;;;;;;;5037903;28;20316;-77
2024/01/11 09:58:46;;;;;;;48.20;34.53;;;;;;;;;;5067174;28;20251;-77
2024/01/11 10:01:12;;;;;;;50.77;35.93;;;;;;;;;;5058810;28;20671;-77
2024/01/11 10:03:39;;;;;;;55.20;36.77;;;;;;;;;;5054828;28;20245;-77
2024/01/11 10:06:07;;;;;;;52.50;36.97;;;;;;;;;;5048506;28;21966;-77
2024/01/11 10:08:37;;;;;;;47.93;35.50;;;;;;;;;;5049023;28;20261;-77
2024/01/11 10:11:03;;;;;;;50.17;35.27;;;;;;;;;;5066192;28;20234;-77
2024/01/11 10:13:32;;;;;;;50.53;35.10;;;;;;;;;;5045501;28;20214;-77
2024/01/11 10:16:15;;;;;;;49.30;34.47;;;;;;;;;;5052340;28;20309;-78
2024/01/11 10:18:44;;;;;;;46.60;33.13;;;;;;;;;;5061200;28;20246;-78
2024/01/11 10:21:09;;;;;;;48.30;34.17;;;;;;;;;;5064825;28;20215;-77
2024/01/11 10:23:35;;;;;;;49.07;34.30;;;;;;;;;;5026474;28;20219;-77
2024/01/11 10:26:03;;;;;;;59.90;40.00;;;;;;;;;;5047560;28;20227;-76
2024/01/11 10:28:29;;;;;;;189.93;95.27;;;;;;;;;;5061009;28;20213;-78
2024/01/11 10:30:55;;;;;;;58.43;38.93;;;;;;;;;;5079711;28;20234;-77
2024/01/11 10:33:23;;;;;;;61.43;40.53;;;;;;;;;;5060433;28;20296;-77
2024/01/11 10:35:49;;;;;;;95.70;53.47;;;;;;;;;;5067779;28;20834;-77
2024/01/11 10:38:17;;;;;;;60.33;41.27;;;;;;;;;;5053149;28;20229;-77
2024/01/11 10:40:45;;;;;;;50.23;39.47;;;;;;;;;;5042893;28;20218;-76
2024/01/11 10:43:11;;;;;;;44.40;35.97;;;;;;;;;;5042675;28;20217;-77
2024/01/11 10:45:39;;;;;;;50.17;36.03;;;;;;;;;;5059702;28;20568;-76
2024/01/11 10:48:17;;;;;;;48.70;37.07;;;;;;;;;;5029670;28;20309;-77
2024/01/11 10:50:48;;;;;;;56.63;37.60;;;;;;;;;;5050876;28;20225;-77
2024/01/11 10:53:46;;;;;;;50.57;37.37;;;;;;;;;;5047283;28;20640;-76
2024/01/11 10:56:18;;;;;;;51.07;34.87;;;;;;;;;;5066719;28;20240;-77
2024/01/11 10:58:46;;;;;;;54.97;38.67;;;;;;;;;;5081104;28;20226;-77
2024/01/11 11:01:12;;;;;;;47.20;35.23;;;;;;;;;;5045124;28;20212;-77
2024/01/11 11:03:38;;;;;;;46.43;35.50;;;;;;;;;;5064082;28;20675;-77
2024/01/11 11:06:07;;;;;;;48.93;35.10;;;;;;;;;;5062244;28;20214;-77
2024/01/11 11:08:36;;;;;;;50.90;35.60;;;;;;;;;;5034929;28;20583;-77
2024/01/11 11:11:08;;;;;;;48.63;34.00;;;;;;;;;;5046785;28;20649;-76
2024/01/11 11:13:36;;;;;;;51.37;34.63;;;;;;;;;;5066293;28;20321;-77
2024/01/11 11:16:05;;;;;;;54.67;36.80;;;;;;;;;;5048337;28;20210;-76
2024/01/11 11:18:31;;;;;;;48.67;36.40;;;;;;;;;;5043072;28;20595;-78
2024/01/11 11:20:57;;;;;;;57.40;38.43;;;;;;;;;;5041618;28;20709;-77
2024/01/11 11:23:23;;;;;;;44.53;34.87;;;;;;;;;;5059705;28;20261;-76
2024/01/11 11:25:49;;;;;;;53.83;38.70;;;;;;;;;;5059188;28;20221;-77
2024/01/11 11:28:18;;;;;;;50.80;36.30;;;;;;;;;;5043039;28;20223;-77
2024/01/11 11:30:46;;;;;;;55.50;36.83;;;;;;;;;;5045723;28;20284;-77
2024/01/11 11:33:26;;;;;;;53.67;37.50;;;;;;;;;;5056000;28;20219;-77
2024/01/11 11:35:57;;;;;;;48.40;36.93;;;;;;;;;;5050865;28;20233;-76
2024/01/11 11:38:26;;;;;;;46.27;35.27;;;;;;;;;;5045526;28;20633;-77
2024/01/11 11:40:52;;;;;;;56.17;37.43;;;;;;;;;;5082610;28;20237;-77
2024/01/11 11:43:18;;;;;;;51.30;37.83;;;;;;;;;;5059226;28;20248;-77
2024/01/11 11:45:46;;;;;;;51.40;37.93;;;;;;;;;;5059254;28;20707;-77
2024/01/11 11:48:35;;;;;;;49.13;37.27;;;;;;;;;;5049532;28;20287;-78
2024/01/11 11:51:07;;;;;;;46.53;36.27;;;;;;;;;;5075964;28;20233;-77
2024/01/11 11:53:36;;;;;;;53.20;36.10;;;;;;;;;;5061678;28;20247;-76
2024/01/11 11:56:02;;;;;;;52.60;40.10;;;;;;;;;;5028746;28;20843;-77
2024/01/11 11:58:31;;;;;;;49.53;38.47;;;;;;;;;;5029978;28;20226;-77
2024/01/11 12:00:57;;;;;;;50.53;37.23;;;;;;;;;;5085731;28;20253;-78
2024/01/11 12:03:31;;;;;;;41.43;34.90;;;;;;;;;;5078616;28;20230;-78
2024/01/11 12:05:57;;;;;;;46.23;34.73;;;;;;;;;;5018430;28;20291;-79
2024/01/11 12:08:22;;;;;;;52.70;36.10;;;;;;;;;;5050810;28;20665;-79
2024/01/11 12:10:51;;;;;;;48.43;37.43;;;;;;;;;;5034870;28;20222;-78
2024/01/11 12:13:17;;;;;;;45.03;34.57;;;;;;;;;;5045972;28;20322;-78
2024/01/11 12:15:48;;;;;;;52.33;38.33;;;;;;;;;;5046153;28;20247;-79
2024/01/11 12:18:16;;;;;;;49.33;36.63;;;;;;;;;;5031901;28;20210;-78
2024/01/11 12:20:41;;;;;;;51.27;35.50;;;;;;;;;;5035352;28;20217;-78
2024/01/11 12:23:10;;;;;;;49.70;35.67;;;;;;;;;;5034822;28;20236;-78
2024/01/11 12:25:36;;;;;;;50.90;36.97;;;;;;;;;;5045333;28;20214;-78
2024/01/11 12:28:01;;;;;;;45.00;35.67;;;;;;;;;;5045742;28;20894;-79
2024/01/11 12:30:27;;;;;;;50.63;38.07;;;;;;;;;;5034369;28;20305;-78
2024/01/11 12:32:56;;;;;;;48.73;36.67;;;;;;;;;;5047569;28;20230;-78
2024/01/11 12:35:24;;;;;;;53.00;38.33;;;;;;;;;;5047758;28;20314;-78
2024/01/11 12:37:59;;;;;;;47.97;35.93;;;;;;;;;;5051133;28;20226;-78
2024/01/11 12:40:30;;;;;;;48.77;36.03;;;;;;;;;;5045309;28;20218;-78
2024/01/11 12:42:59;;;;;;;53.63;37.23;;;;;;;;;;5068405;28;20213;-78
2024/01/11 12:45:26;;;;;;;50.80;35.07;;;;;;;;;;5044150;28;20220;-78
2024/01/11 12:47:52;;;;;;;51.73;36.50;;;;;;;;;;5078598;28;20233;-77
2024/01/11 12:50:17;;;;;;;48.77;36.80;;;;;;;;;;5029584;28;20217;-77
2024/01/11 12:52:45;;;;;;;52.23;37.13;;;;;;;;;;5042047;28;20229;-77
2024/01/11 12:55:22;;;;;;;52.80;38.00;;;;;;;;;;5043981;28;20252;-77
2024/01/11 12:58:02;;;;;;;50.87;35.53;;;;;;;;;;5046209;28;20270;-77
2024/01/11 13:00:28;;;;;;;50.47;37.30;;;;;;;;;;5031782;28;20317;-79
2024/01/11 13:02:56;;;;;;;49.63;35.43;;;;;;;;;;5025565;28;20762;-77
2024/01/11 13:05:21;;;;;;;57.43;39.33;;;;;;;;;;5065889;28;20614;-77
2024/01/11 13:07:49;;;;;;;51.57;35.37;;;;;;;;;;5027837;28;20219;-77
2024/01/11 13:10:16;;;;;;;56.97;38.63;;;;;;;;;;5062937;28;20226;-79
2024/01/11 13:12:42;;;;;;;53.17;38.63;;;;;;;;;;5064156;28;20222;-77
2024/01/11 13:15:08;;;;;;;53.77;39.10;;;;;;;;;;5042274;28;20700;-77
2024/01/11 13:17:34;;;;;;;62.43;40.27;;;;;;;;;;5027462;28;20228;-77
2024/01/11 13:20:01;;;;;;;60.87;40.10;;;;;;;;;;5043126;28;20225;-77
2024/01/11 13:22:27;;;;;;;52.67;40.33;;;;;;;;;;5061364;28;20852;-77
2024/01/11 13:24:52;;;;;;;54.27;37.97;;;;;;;;;;5064893;28;20217;-77
2024/01/11 13:27:18;;;;;;;62.73;40.30;;;;;;;;;;5045068;28;20225;-77
2024/01/11 13:29:43;;;;;;;53.10;38.93;;;;;;;;;;5069385;28;20214;-77
2024/01/11 13:32:10;;;;;;;51.20;39.73;;;;;;;;;;5032422;28;20312;-77
2024/01/11 13:34:37;;;;;;;65.10;42.83;;;;;;;;;;5080485;28;20260;-77
2024/01/11 13:37:03;;;;;;;59.70;42.40;;;;;;;;;;5078770;28;20236;-77
2024/01/11 13:39:30;;;;;;;64.23;42.17;;;;;;;;;;5046029;28;20381;-77
2024/01/11 13:41:56;;;;;;;60.10;43.10;;;;;;;;;;5027598;28;20213;-77
2024/01/11 13:44:23;;;;;;;55.43;40.83;;;;;;;;;;5061566;28;20695;-77
2024/01/11 13:46:49;;;;;;;58.17;39.63;;;;;;;;;;5061937;28;20309;-78
2024/01/11 13:49:14;;;;;;;59.60;40.33;;;;;;;;;;5044186;28;20222;-77
2024/01/11 13:51:44;;;;;;;75.33;47.47;;;;;;;;;;5058047;28;20253;-77
2024/01/11 13:54:09;;;;;;;64.87;42.43;;;;;;;;;;5031925;28;20277;-78
2024/01/11 13:56:35;;;;;;;65.23;43.33;;;;;;;;;;5042962;28;20555;-77
2024/01/11 13:59:00;;;;;;;61.60;39.33;;;;;;;;;;5048030;28;20928;-76
2024/01/11 14:01:26;;;;;;;69.60;45.37;;;;;;;;;;5066768;28;20913;-76
2024/01/11 14:03:54;;;;;;;57.93;39.57;;;;;;;;;;5047389;28;20223;-76
2024/01/11 14:06:22;;;;;;;60.97;39.03;;;;;;;;;;5050298;28;20694;-77
2024/01/11 14:08:48;;;;;;;62.77;39.80;;;;;;;;;;5069193;28;20246;-78
2024/01/11 14:11:16;;;;;;;59.57;39.10;;;;;;;;;;5031603;28;20214;-79
2024/01/11 14:13:50;;;;;;;59.67;38.57;;;;;;;;;;5080181;28;20284;-78
2024/01/11 14:16:18;;;;;;;61.17;38.40;;;;;;;;;;5033785;28;20221;-77
2024/01/11 14:18:44;;;;;;;58.43;39.43;;;;;;;;;;5045033;28;20221;-77
2024/01/11 14:21:11;;;;;;;60.63;40.13;;;;;;;;;;5076351;28;20303;-78